Time;durP1;ratioP1;P1;durP2;ratioP2;P2;SDS_P1;SDS_P2;PMS_P1;PMS_P2;Temp;Humidity;BMP_temperature;BMP_pressure;BME280_temperature;BME280_humidity;BME280_pressure;Samples;Min_cycle;Max_cycle;Signal;HPM_P1;HPM_P2
2023/08/17 00:01:43;;;;;;;3.30;3.00;;;22.00;99.90;;;;;;5010591;28;20553;-62
2023/08/17 00:04:10;;;;;;;3.37;2.97;;;22.00;99.90;;;;;;5010860;28;20460;-64
2023/08/17 00:06:37;;;;;;;5.10;3.70;;;22.00;99.90;;;;;;5005764;28;20505;-63
2023/08/17 00:09:04;;;;;;;6.00;3.00;;;22.00;99.90;;;;;;5015370;28;20464;-62
2023/08/17 00:11:31;;;;;;;6.50;2.97;;;22.00;99.90;;;;;;4998625;28;20915;-66
2023/08/17 00:14:00;;;;;;;3.27;2.60;;;22.00;99.90;;;;;;5000060;28;20583;-65
2023/08/17 00:16:27;;;;;;;3.73;3.03;;;22.00;99.90;;;;;;5019800;28;20477;-65
2023/08/17 00:18:53;;;;;;;3.60;2.90;;;21.90;99.90;;;;;;5018678;28;20461;-63
2023/08/17 00:21:20;;;;;;;5.20;3.63;;;21.90;99.90;;;;;;5009657;28;20971;-65
2023/08/17 00:23:47;;;;;;;3.83;2.70;;;21.80;99.90;;;;;;5011411;28;20567;-63
2023/08/17 00:26:15;;;;;;;7.17;3.00;;;21.80;99.90;;;;;;5016727;28;20499;-62
2023/08/17 00:28:41;;;;;;;3.03;2.73;;;21.80;99.90;;;;;;5012341;28;20445;-63
2023/08/17 00:31:10;;;;;;;5.13;3.20;;;21.80;99.90;;;;;;5014453;28;20481;-63
2023/08/17 00:33:37;;;;;;;4.83;3.33;;;21.80;99.90;;;;;;5000703;28;20512;-64
2023/08/17 00:36:04;;;;;;;5.63;3.00;;;21.80;99.90;;;;;;5001845;28;20470;-62
2023/08/17 00:38:31;;;;;;;3.60;3.17;;;21.70;99.90;;;;;;5005597;28;20453;-61
2023/08/17 00:40:58;;;;;;;3.67;3.37;;;21.70;99.90;;;;;;5015889;28;20461;-63
2023/08/17 00:43:25;;;;;;;3.37;3.00;;;21.60;99.90;;;;;;5013771;28;20461;-64
2023/08/17 00:45:52;;;;;;;8.83;3.37;;;21.60;99.90;;;;;;5017713;28;20473;-64
2023/08/17 00:48:21;;;;;;;7.03;2.60;;;21.60;99.90;;;;;;5018033;28;20456;-65
2023/08/17 00:50:49;;;;;;;5.93;3.60;;;21.50;99.90;;;;;;5007895;28;20504;-63
2023/08/17 00:53:19;;;;;;;3.30;2.93;;;21.50;99.90;;;;;;5021485;28;20546;-56
2023/08/17 00:55:49;;;;;;;7.03;3.10;;;21.50;99.90;;;;;;5038634;28;20461;-55
2023/08/17 00:58:16;;;;;;;5.93;3.27;;;21.50;99.90;;;;;;5038618;28;20445;-55
2023/08/17 01:00:43;;;;;;;4.60;3.00;;;21.50;99.90;;;;;;5037681;28;20445;-54
2023/08/17 01:03:10;;;;;;;7.00;3.07;;;21.40;99.90;;;;;;5034314;28;20512;-60
2023/08/17 01:05:38;;;;;;;3.60;3.20;;;21.50;99.90;;;;;;5028405;28;20454;-61
2023/08/17 01:08:07;;;;;;;5.57;3.57;;;21.50;99.90;;;;;;5032342;28;20541;-61
2023/08/17 01:10:40;;;;;;;6.43;4.20;;;21.50;99.90;;;;;;5030203;28;20488;-61
2023/08/17 01:13:15;;;;;;;6.57;3.07;;;21.50;99.90;;;;;;5034030;28;20465;-60
2023/08/17 01:15:46;;;;;;;5.00;3.20;;;21.40;99.90;;;;;;5014029;28;20515;-63
2023/08/17 01:18:23;;;;;;;4.03;2.70;;;21.40;99.90;;;;;;4995496;28;20490;-63
2023/08/17 01:20:53;;;;;;;3.33;2.90;;;21.30;99.90;;;;;;5009669;28;20555;-63
2023/08/17 01:23:22;;;;;;;3.50;3.20;;;21.30;99.90;;;;;;5006389;28;21029;-64
2023/08/17 01:25:49;;;;;;;8.27;3.43;;;21.20;99.90;;;;;;5013102;28;20544;-64
2023/08/17 01:28:16;;;;;;;5.17;4.13;;;21.20;99.90;;;;;;5015163;28;20492;-65
2023/08/17 01:30:51;;;;;;;3.63;2.90;;;21.20;99.90;;;;;;5014144;28;20515;-64
2023/08/17 01:33:25;;;;;;;2.70;2.50;;;21.20;99.90;;;;;;5006983;28;20767;-62
2023/08/17 01:36:00;;;;;;;7.20;2.83;;;21.10;99.90;;;;;;5014987;28;20522;-64
2023/08/17 01:38:31;;;;;;;11.03;3.33;;;21.20;99.90;;;;;;5037375;28;20456;-55
2023/08/17 01:41:01;;;;;;;4.93;2.87;;;21.10;99.90;;;;;;5038355;28;20417;-63
2023/08/17 01:43:29;;;;;;;2.70;2.50;;;21.10;99.90;;;;;;5035792;28;20472;-62
2023/08/17 01:45:56;;;;;;;4.20;3.20;;;21.10;99.90;;;;;;5034900;28;20457;-64
2023/08/17 01:48:23;;;;;;;4.33;3.37;;;21.00;99.90;;;;;;5023748;28;20470;-64
2023/08/17 01:50:50;;;;;;;5.97;3.83;;;21.00;99.90;;;;;;4998764;28;20453;-64
2023/08/17 01:53:17;;;;;;;3.40;3.10;;;20.90;99.90;;;;;;4994992;28;20501;-63
2023/08/17 01:55:45;;;;;;;4.50;3.27;;;20.90;99.90;;;;;;4995303;28;20984;-63
2023/08/17 01:58:12;;;;;;;8.57;3.40;;;20.90;99.90;;;;;;4995147;28;20545;-63
2023/08/17 02:00:39;;;;;;;9.00;4.20;;;20.90;99.90;;;;;;5005346;28;20533;-63
2023/08/17 02:03:06;;;;;;;6.43;3.37;;;20.80;99.90;;;;;;5014183;28;20552;-64
2023/08/17 02:05:32;;;;;;;4.53;3.60;;;20.90;99.90;;;;;;5011421;28;20540;-65
2023/08/17 02:07:59;;;;;;;3.60;3.30;;;20.80;99.90;;;;;;5013892;28;20467;-64
2023/08/17 02:10:26;;;;;;;8.23;4.23;;;20.80;99.90;;;;;;5012752;28;20552;-65
2023/08/17 02:12:54;;;;;;;3.97;3.00;;;20.80;99.90;;;;;;5014741;28;20535;-62
2023/08/17 02:15:21;;;;;;;5.90;3.40;;;20.80;99.90;;;;;;5009846;28;20521;-62
2023/08/17 02:17:48;;;;;;;8.93;3.00;;;20.80;99.90;;;;;;5025707;28;20472;-64
2023/08/17 02:20:15;;;;;;;4.90;3.77;;;20.80;99.90;;;;;;5024688;28;20471;-63
2023/08/17 02:22:42;;;;;;;6.20;3.50;;;20.80;99.90;;;;;;5010974;28;20556;-63
2023/08/17 02:25:09;;;;;;;4.20;3.00;;;20.80;99.90;;;;;;5010348;28;20569;-63
2023/08/17 02:27:36;;;;;;;7.70;3.27;;;20.80;99.90;;;;;;4998375;28;20557;-64
2023/08/17 02:30:06;;;;;;;6.30;3.30;;;20.70;99.90;;;;;;5015156;28;20878;-63
2023/08/17 02:32:32;;;;;;;3.53;2.97;;;20.70;99.90;;;;;;5016891;28;20539;-62
2023/08/17 02:34:59;;;;;;;3.97;3.20;;;20.80;99.90;;;;;;5015931;28;20511;-62
2023/08/17 02:37:26;;;;;;;7.83;3.30;;;20.80;99.90;;;;;;5016088;28;20525;-63
2023/08/17 02:39:53;;;;;;;4.50;2.80;;;20.80;99.90;;;;;;5007813;28;20545;-65
2023/08/17 02:42:20;;;;;;;4.87;2.60;;;20.80;99.90;;;;;;5021833;28;20507;-62
2023/08/17 02:44:49;;;;;;;5.80;2.60;;;20.70;99.90;;;;;;5023109;28;20504;-64
2023/08/17 02:47:18;;;;;;;2.90;2.60;;;20.70;99.90;;;;;;5023198;28;20456;-63
2023/08/17 02:49:44;;;;;;;5.40;2.90;;;20.70;99.90;;;;;;5021443;28;20485;-63
2023/08/17 02:52:11;;;;;;;12.73;3.70;;;20.70;99.90;;;;;;5019775;28;20544;-63
2023/08/17 02:54:38;;;;;;;3.93;2.80;;;20.60;99.90;;;;;;5010104;28;20517;-63
2023/08/17 02:57:05;;;;;;;6.17;2.97;;;20.70;99.90;;;;;;5016650;28;20567;-63
2023/08/17 02:59:32;;;;;;;4.53;2.70;;;20.60;99.90;;;;;;5005289;28;20766;-64
2023/08/17 03:01:59;;;;;;;6.10;3.23;;;20.70;99.90;;;;;;5016564;28;20465;-57
2023/08/17 03:04:27;;;;;;;4.43;3.00;;;20.60;99.90;;;;;;5013738;28;21008;-65
2023/08/17 03:06:54;;;;;;;3.57;2.60;;;20.60;99.90;;;;;;5010880;28;20450;-65
2023/08/17 03:09:21;;;;;;;5.83;3.00;;;20.60;99.90;;;;;;5008112;28;20567;-66
2023/08/17 03:11:48;;;;;;;6.20;3.23;;;20.60;99.90;;;;;;5019230;28;20495;-63
2023/08/17 03:14:15;;;;;;;5.53;3.20;;;20.60;99.90;;;;;;5005728;28;20480;-63
2023/08/17 03:16:41;;;;;;;4.80;3.10;;;20.60;99.90;;;;;;5014897;28;20509;-61
2023/08/17 03:19:10;;;;;;;3.43;3.13;;;20.60;99.90;;;;;;5007596;28;20503;-62
2023/08/17 03:21:39;;;;;;;3.40;3.10;;;20.60;99.90;;;;;;5021962;28;20480;-65
2023/08/17 03:24:07;;;;;;;3.13;2.70;;;20.60;99.90;;;;;;5017095;28;20544;-62
2023/08/17 03:26:34;;;;;;;6.37;3.07;;;20.60;99.90;;;;;;5012644;28;20457;-64
2023/08/17 03:29:04;;;;;;;4.03;2.90;;;20.60;99.90;;;;;;5000282;28;20497;-63
2023/08/17 03:31:30;;;;;;;6.27;2.93;;;20.60;99.90;;;;;;5010528;28;20480;-63
2023/08/17 03:33:57;;;;;;;3.20;2.90;;;20.50;99.90;;;;;;5014192;28;20475;-63
2023/08/17 03:36:24;;;;;;;7.70;3.47;;;20.50;99.90;;;;;;5007236;28;20477;-62
2023/08/17 03:38:52;;;;;;;6.33;3.37;;;20.60;99.90;;;;;;5009337;28;20537;-64
2023/08/17 03:41:19;;;;;;;3.90;3.60;;;20.50;99.90;;;;;;5006039;28;20563;-64
2023/08/17 03:43:47;;;;;;;3.23;2.93;;;20.50;99.90;;;;;;5000403;28;20839;-66
2023/08/17 03:46:14;;;;;;;3.20;2.80;;;20.50;99.90;;;;;;5006509;28;20484;-65
2023/08/17 03:48:41;;;;;;;4.00;2.80;;;20.50;99.90;;;;;;5016424;28;20504;-66
2023/08/17 03:51:08;;;;;;;6.03;3.17;;;20.50;99.90;;;;;;5015998;28;20535;-64
2023/08/17 03:53:35;;;;;;;5.63;2.70;;;20.50;99.90;;;;;;5002727;28;20493;-65
2023/08/17 03:56:03;;;;;;;11.73;3.17;;;20.50;99.90;;;;;;5015301;28;20568;-64
2023/08/17 03:58:34;;;;;;;4.03;3.23;;;20.50;99.90;;;;;;5017817;28;20481;-63
2023/08/17 04:01:02;;;;;;;5.83;3.00;;;20.50;99.90;;;;;;5015750;28;20489;-62
2023/08/17 04:03:29;;;;;;;5.10;3.30;;;20.50;99.90;;;;;;5022931;28;20564;-54
2023/08/17 04:05:56;;;;;;;4.90;2.23;;;20.60;99.90;;;;;;5036816;28;20441;-62
2023/08/17 04:08:23;;;;;;;9.33;3.20;;;20.60;99.90;;;;;;5010357;28;20787;-63
2023/08/17 04:10:50;;;;;;;3.93;2.47;;;20.50;99.90;;;;;;5011146;28;20543;-65
2023/08/17 04:13:18;;;;;;;6.17;2.50;;;20.60;99.90;;;;;;4997569;28;20553;-64
2023/08/17 04:15:45;;;;;;;5.87;3.30;;;20.60;99.90;;;;;;5011546;28;20568;-64
2023/08/17 04:18:12;;;;;;;2.80;2.60;;;20.60;99.90;;;;;;5004777;28;20528;-62
2023/08/17 04:20:39;;;;;;;6.60;3.23;;;20.60;99.90;;;;;;5012725;28;20568;-63
2023/08/17 04:23:06;;;;;;;3.97;3.03;;;20.60;99.90;;;;;;5015338;28;20493;-62
2023/08/17 04:25:33;;;;;;;3.73;2.93;;;20.60;99.90;;;;;;5015642;28;20926;-63
2023/08/17 04:28:00;;;;;;;2.47;2.27;;;20.60;99.90;;;;;;5005113;28;20572;-65
2023/08/17 04:30:28;;;;;;;4.93;3.77;;;20.60;99.90;;;;;;5014212;28;20540;-63
2023/08/17 04:32:55;;;;;;;3.17;2.87;;;20.60;99.90;;;;;;5000877;28;21129;-62
2023/08/17 04:35:22;;;;;;;3.13;2.83;;;20.70;99.90;;;;;;5015277;28;20469;-63
2023/08/17 04:37:59;;;;;;;4.40;2.60;;;20.70;99.90;;;;;;5028251;28;20468;-55
2023/08/17 04:40:39;;;;;;;4.20;2.83;;;20.70;99.90;;;;;;5034887;28;20441;-56
2023/08/17 04:43:05;;;;;;;5.93;2.70;;;20.70;99.90;;;;;;5027135;28;20469;-55
2023/08/17 04:45:34;;;;;;;3.97;2.80;;;20.70;99.90;;;;;;5023856;28;20442;-58
2023/08/17 04:48:01;;;;;;;3.80;3.20;;;20.70;99.90;;;;;;5026336;28;20509;-63
2023/08/17 04:50:27;;;;;;;5.53;2.67;;;20.70;99.90;;;;;;5006703;28;20520;-62
2023/08/17 04:52:54;;;;;;;3.90;2.77;;;20.80;99.90;;;;;;4997242;28;20556;-63
2023/08/17 04:55:22;;;;;;;3.30;2.70;;;20.90;99.90;;;;;;4996185;28;20558;-62
2023/08/17 04:57:49;;;;;;;2.93;2.10;;;20.90;99.90;;;;;;4998156;28;20489;-63
2023/08/17 05:00:17;;;;;;;4.63;2.90;;;21.00;99.90;;;;;;5001428;28;20843;-62
2023/08/17 05:02:45;;;;;;;3.20;2.40;;;21.00;99.90;;;;;;5035952;28;20470;-54
2023/08/17 05:05:12;;;;;;;6.33;2.77;;;21.00;99.90;;;;;;5037450;28;20539;-56
2023/08/17 05:07:39;;;;;;;4.23;2.40;;;21.00;99.90;;;;;;5033938;28;20469;-57
2023/08/17 05:10:07;;;;;;;6.93;2.63;;;21.00;99.90;;;;;;5025106;28;20433;-60
2023/08/17 05:12:33;;;;;;;4.83;2.90;;;21.10;99.90;;;;;;5037580;28;20723;-62
2023/08/17 05:15:00;;;;;;;3.20;2.10;;;21.00;99.90;;;;;;5025986;28;20438;-62
2023/08/17 05:17:27;;;;;;;3.43;2.70;;;21.10;99.90;;;;;;4998945;28;20527;-64
2023/08/17 05:19:56;;;;;;;3.83;2.37;;;21.10;99.90;;;;;;5000014;28;20469;-64
2023/08/17 05:22:23;;;;;;;3.27;2.70;;;21.10;99.90;;;;;;5000680;28;20957;-64
2023/08/17 05:24:50;;;;;;;2.63;2.20;;;21.20;99.90;;;;;;4998891;28;20493;-63
2023/08/17 05:27:16;;;;;;;2.77;2.47;;;21.20;99.90;;;;;;5020419;28;20511;-64
2023/08/17 05:29:43;;;;;;;2.77;2.40;;;21.20;99.90;;;;;;5009902;28;20560;-64
2023/08/17 05:32:10;;;;;;;3.63;2.90;;;21.20;99.90;;;;;;5009076;28;20461;-64
2023/08/17 05:34:37;;;;;;;4.50;2.23;;;21.30;99.90;;;;;;5010696;28;20493;-62
2023/08/17 05:37:05;;;;;;;3.80;2.73;;;21.30;99.90;;;;;;5014916;28;20516;-65
2023/08/17 05:39:32;;;;;;;5.20;2.57;;;21.30;99.90;;;;;;5014913;28;20493;-62
2023/08/17 05:41:59;;;;;;;2.53;2.33;;;21.40;99.90;;;;;;5015598;28;20536;-59
2023/08/17 05:44:26;;;;;;;4.37;3.37;;;21.40;99.90;;;;;;5015065;28;20547;-61
2023/08/17 05:46:53;;;;;;;5.70;3.37;;;21.40;99.90;;;;;;5014814;28;20532;-61
2023/08/17 05:49:26;;;;;;;2.63;2.43;;;21.40;99.90;;;;;;5015118;28;20560;-60
2023/08/17 05:51:52;;;;;;;3.30;2.30;;;21.40;99.90;;;;;;5020344;28;20525;-60
2023/08/17 05:54:21;;;;;;;3.03;2.70;;;21.50;99.90;;;;;;5021263;28;20559;-59
2023/08/17 05:56:47;;;;;;;3.40;3.00;;;21.50;99.90;;;;;;5021432;28;20481;-61
2023/08/17 05:59:15;;;;;;;3.60;2.47;;;21.50;99.90;;;;;;5021512;28;20564;-59
2023/08/17 06:01:42;;;;;;;3.33;2.87;;;21.50;99.90;;;;;;5021545;28;20539;-60
2023/08/17 06:04:09;;;;;;;5.60;3.00;;;21.50;99.90;;;;;;5021650;28;20504;-59
2023/08/17 06:06:37;;;;;;;4.37;3.10;;;21.60;99.90;;;;;;5021332;28;20472;-60
2023/08/17 06:09:04;;;;;;;4.67;2.87;;;21.50;99.90;;;;;;5018544;28;20672;-59
2023/08/17 06:11:32;;;;;;;3.13;2.83;;;21.50;99.90;;;;;;5018710;28;20513;-59
2023/08/17 06:13:59;;;;;;;4.63;3.07;;;21.40;99.90;;;;;;5018906;28;20932;-59
2023/08/17 06:16:26;;;;;;;4.73;3.30;;;21.60;99.90;;;;;;5018732;28;20552;-59
2023/08/17 06:18:53;;;;;;;6.93;2.80;;;21.70;99.90;;;;;;5018144;28;20436;-58
2023/08/17 06:21:20;;;;;;;7.50;2.90;;;21.70;99.90;;;;;;5019163;28;20813;-57
2023/08/17 06:23:47;;;;;;;7.43;3.43;;;21.70;99.90;;;;;;5021230;28;20484;-59
2023/08/17 06:26:14;;;;;;;7.10;2.60;;;21.80;99.90;;;;;;5022099;28;20544;-58
2023/08/17 06:28:42;;;;;;;5.83;2.80;;;21.90;99.90;;;;;;5019096;28;20475;-59
2023/08/17 06:31:09;;;;;;;4.13;3.07;;;21.90;99.90;;;;;;5018851;28;20928;-61
2023/08/17 06:33:36;;;;;;;3.73;2.63;;;21.80;99.90;;;;;;5020352;28;20980;-58
2023/08/17 06:36:03;;;;;;;5.00;3.10;;;21.90;99.90;;;;;;5021494;28;20524;-59
2023/08/17 06:38:30;;;;;;;4.53;3.67;;;21.90;99.90;;;;;;5018343;28;20492;-60
2023/08/17 06:40:56;;;;;;;5.40;3.33;;;22.00;99.90;;;;;;5018049;28;20497;-61
2023/08/17 06:43:23;;;;;;;2.80;2.53;;;22.00;99.90;;;;;;5018088;28;20527;-60
2023/08/17 06:45:52;;;;;;;2.57;2.37;;;22.10;99.90;;;;;;5017674;28;20552;-59
2023/08/17 06:48:18;;;;;;;6.00;2.67;;;22.20;99.90;;;;;;5018233;28;20511;-59
2023/08/17 06:50:45;;;;;;;5.13;2.77;;;22.20;99.90;;;;;;5019027;28;20500;-61
2023/08/17 06:53:12;;;;;;;4.90;3.00;;;22.30;99.90;;;;;;5023638;28;20499;-59
2023/08/17 06:55:39;;;;;;;4.67;2.20;;;22.30;99.90;;;;;;5023830;28;20472;-60
2023/08/17 06:58:07;;;;;;;4.23;2.53;;;22.40;99.90;;;;;;5023873;28;20489;-58
2023/08/17 07:00:35;;;;;;;3.37;2.63;;;22.40;99.90;;;;;;5024024;28;20471;-59
2023/08/17 07:03:04;;;;;;;3.63;3.03;;;22.50;99.90;;;;;;5017595;28;20441;-59
2023/08/17 07:05:30;;;;;;;5.30;2.70;;;22.60;99.90;;;;;;5017360;28;20488;-63
2023/08/17 07:07:59;;;;;;;4.60;2.73;;;22.70;99.90;;;;;;5027285;28;20489;-60
2023/08/17 07:10:28;;;;;;;4.03;3.63;;;22.80;99.90;;;;;;5019512;28;20445;-60
2023/08/17 07:12:55;;;;;;;4.20;2.97;;;23.00;99.90;;;;;;5017486;28;20504;-58
2023/08/17 07:15:22;;;;;;;4.23;2.47;;;23.10;99.90;;;;;;5018056;28;20476;-59
2023/08/17 07:17:48;;;;;;;4.13;3.10;;;23.00;99.90;;;;;;5019790;28;20488;-57
2023/08/17 07:20:17;;;;;;;4.10;3.50;;;23.00;99.90;;;;;;5018509;28;20460;-60
2023/08/17 07:22:43;;;;;;;3.20;2.90;;;23.00;99.90;;;;;;5017013;28;21006;-59
2023/08/17 07:25:10;;;;;;;4.40;3.20;;;23.00;99.90;;;;;;5017217;28;20497;-59
2023/08/17 07:27:37;;;;;;;12.00;3.77;;;23.00;99.90;;;;;;5017681;28;20488;-61
2023/08/17 07:30:07;;;;;;;7.33;3.33;;;22.90;99.90;;;;;;5018767;28;20925;-58
2023/08/17 07:32:34;;;;;;;5.00;3.33;;;22.80;99.90;;;;;;5030201;28;20445;-59
2023/08/17 07:35:01;;;;;;;6.67;3.90;;;22.80;99.90;;;;;;5026844;28;20488;-59
2023/08/17 07:37:32;;;;;;;7.10;3.30;;;22.70;99.90;;;;;;5023044;28;20507;-61
2023/08/17 07:39:59;;;;;;;5.30;3.00;;;22.60;99.90;;;;;;5017918;28;20473;-59
2023/08/17 07:42:29;;;;;;;5.13;2.70;;;22.60;99.90;;;;;;5016930;28;20814;-60
2023/08/17 07:44:56;;;;;;;3.63;3.27;;;22.60;99.90;;;;;;5018214;28;20485;-60
2023/08/17 07:47:23;;;;;;;4.20;3.57;;;22.60;99.90;;;;;;5024023;28;20508;-60
2023/08/17 07:49:50;;;;;;;4.63;3.07;;;22.60;99.90;;;;;;5016789;28;20449;-61
2023/08/17 07:52:17;;;;;;;3.40;2.80;;;22.60;99.90;;;;;;5019031;28;20461;-58
2023/08/17 07:54:46;;;;;;;4.13;2.70;;;22.70;99.90;;;;;;5030575;28;20452;-59
2023/08/17 07:57:13;;;;;;;5.93;4.20;;;22.80;99.90;;;;;;5028677;28;20513;-58
2023/08/17 07:59:40;;;;;;;5.67;3.47;;;22.90;99.90;;;;;;5029009;28;20521;-59
2023/08/17 08:02:07;;;;;;;6.80;3.23;;;23.00;99.90;;;;;;5019751;28;20445;-59
2023/08/17 08:04:34;;;;;;;3.77;3.20;;;23.00;99.90;;;;;;5018961;28;20469;-59
2023/08/17 08:07:01;;;;;;;4.03;3.37;;;23.00;99.90;;;;;;5021219;28;20505;-61
2023/08/17 08:09:28;;;;;;;7.57;2.37;;;23.10;99.90;;;;;;5025392;28;20552;-56
2023/08/17 08:11:56;;;;;;;3.83;2.73;;;23.40;99.90;;;;;;5021478;28;20460;-58
2023/08/17 08:14:23;;;;;;;3.77;3.47;;;23.80;99.90;;;;;;5020357;28;20472;-58
2023/08/17 08:16:50;;;;;;;10.10;2.90;;;24.70;99.90;;;;;;5020817;28;20437;-60
2023/08/17 08:19:17;;;;;;;5.47;2.63;;;26.20;99.90;;;;;;5020944;28;20487;-58
2023/08/17 08:21:44;;;;;;;5.30;2.77;;;27.60;99.90;;;;;;5022090;28;20484;-61
2023/08/17 08:24:11;;;;;;;20.00;3.70;;;29.20;99.90;;;;;;5018055;28;20441;-62
2023/08/17 08:26:38;;;;;;;4.60;3.00;;;30.20;99.90;;;;;;5016245;28;20516;-59
2023/08/17 08:29:06;;;;;;;5.87;3.27;;;30.30;99.90;;;;;;5016014;28;20553;-60
2023/08/17 08:31:33;;;;;;;3.50;2.90;;;30.50;99.90;;;;;;5015647;28;20521;-62
2023/08/17 08:34:00;;;;;;;3.37;3.00;;;30.90;99.90;;;;;;5015683;28;20968;-61
2023/08/17 08:36:27;;;;;;;5.80;3.17;;;30.90;98.80;;;;;;5030753;28;20440;-56
2023/08/17 08:38:54;;;;;;;5.67;3.10;;;30.50;98.80;;;;;;5039672;28;20468;-52
2023/08/17 08:41:22;;;;;;;4.13;2.63;;;30.00;99.90;;;;;;5026859;28;20890;-56
2023/08/17 08:43:49;;;;;;;3.50;3.00;;;29.60;99.90;;;;;;5016198;28;20450;-62
2023/08/17 08:46:19;;;;;;;3.80;3.17;;;29.10;99.90;;;;;;5019297;28;20440;-56
2023/08/17 08:48:48;;;;;;;3.87;2.77;;;28.60;99.90;;;;;;5039128;28;20532;-53
2023/08/17 08:51:22;;;;;;;4.90;3.73;;;28.10;99.90;;;;;;5037187;28;20445;-62
2023/08/17 08:54:01;;;;;;;4.20;3.80;;;27.50;99.90;;;;;;5031008;28;20472;-63
2023/08/17 08:56:31;;;;;;;3.47;3.17;;;26.80;99.90;;;;;;5022082;28;20429;-63
2023/08/17 08:58:59;;;;;;;4.10;3.30;;;26.40;99.90;;;;;;5021888;28;21035;-62
2023/08/17 09:01:28;;;;;;;9.40;6.97;;;26.00;99.90;;;;;;5016238;28;20430;-64
2023/08/17 09:03:56;;;;;;;4.80;3.77;;;25.60;99.90;;;;;;5015489;28;20442;-61
2023/08/17 09:06:26;;;;;;;5.50;5.00;;;25.40;99.90;;;;;;5015461;28;20449;-61
2023/08/17 09:08:53;;;;;;;5.53;3.70;;;25.10;99.90;;;;;;5015916;28;20964;-61
2023/08/17 09:11:20;;;;;;;4.83;3.37;;;24.90;99.90;;;;;;5017270;28;20798;-62
2023/08/17 09:13:47;;;;;;;4.33;3.93;;;24.70;99.90;;;;;;5017007;28;20511;-63
2023/08/17 09:16:14;;;;;;;6.80;5.20;;;24.60;99.90;;;;;;5015115;28;20469;-62
2023/08/17 09:18:46;;;;;;;4.30;3.90;;;24.50;99.90;;;;;;5033056;28;20507;-55
2023/08/17 09:21:22;;;;;;;5.90;3.93;;;24.50;99.90;;;;;;5032852;28;20425;-60
2023/08/17 09:23:53;;;;;;;4.27;3.80;;;24.40;99.90;;;;;;5022665;28;20472;-62
2023/08/17 09:26:22;;;;;;;6.43;3.80;;;24.60;99.90;;;;;;5016534;28;20432;-63
2023/08/17 09:28:49;;;;;;;4.60;3.70;;;24.70;99.90;;;;;;5014861;28;20437;-64
2023/08/17 09:31:16;;;;;;;7.13;4.03;;;24.90;99.90;;;;;;5015011;28;20487;-63
2023/08/17 09:33:49;;;;;;;5.00;3.40;;;25.00;99.90;;;;;;5014846;28;20484;-62
2023/08/17 09:36:16;;;;;;;5.83;3.93;;;25.10;99.90;;;;;;5015077;28;20469;-64
2023/08/17 09:38:43;;;;;;;3.60;3.00;;;25.30;99.90;;;;;;5016302;28;20524;-64
2023/08/17 09:41:10;;;;;;;4.37;3.97;;;25.40;99.90;;;;;;5023841;28;20460;-63
2023/08/17 09:43:37;;;;;;;5.90;3.20;;;25.60;99.90;;;;;;5023208;28;20990;-60
2023/08/17 09:46:04;;;;;;;4.33;3.20;;;26.00;99.90;;;;;;5024515;28;20954;-62
2023/08/17 09:48:31;;;;;;;4.00;3.60;;;26.50;99.90;;;;;;5023504;28;20448;-63
2023/08/17 09:51:01;;;;;;;3.90;3.00;;;26.60;99.90;;;;;;5015475;28;20946;-62
2023/08/17 09:53:28;;;;;;;7.70;4.17;;;26.60;99.90;;;;;;5014894;28;20457;-62
2023/08/17 09:55:56;;;;;;;6.80;3.77;;;26.60;99.90;;;;;;5015391;28;20473;-61
2023/08/17 09:58:22;;;;;;;5.97;4.13;;;26.80;99.90;;;;;;5017226;28;20882;-63
2023/08/17 10:00:51;;;;;;;4.47;3.83;;;27.10;99.90;;;;;;5021695;28;20469;-62
2023/08/17 10:03:21;;;;;;;4.50;3.57;;;27.20;99.90;;;;;;5019109;28;20465;-62
2023/08/17 10:05:53;;;;;;;4.20;3.37;;;27.20;99.90;;;;;;5023284;28;20906;-60
2023/08/17 10:08:23;;;;;;;5.23;3.87;;;27.20;99.90;;;;;;5023408;28;20429;-63
2023/08/17 10:10:51;;;;;;;4.17;3.17;;;27.00;99.90;;;;;;5023293;28;20507;-62
2023/08/17 10:13:28;;;;;;;4.20;3.27;;;26.80;99.90;;;;;;5019019;28;20479;-63
2023/08/17 10:16:02;;;;;;;7.20;4.17;;;26.60;99.90;;;;;;5019165;28;20519;-62
2023/08/17 10:18:36;;;;;;;4.33;3.90;;;26.20;99.90;;;;;;5020370;28;20512;-61
2023/08/17 10:21:11;;;;;;;5.67;4.87;;;25.90;99.90;;;;;;5020725;28;20421;-63
2023/08/17 10:23:40;;;;;;;5.10;3.63;;;25.60;99.90;;;;;;5014673;28;20547;-63
2023/08/17 10:26:08;;;;;;;5.20;4.33;;;25.40;99.90;;;;;;5015790;28;20445;-61
2023/08/17 10:28:35;;;;;;;17.90;11.67;;;25.30;99.90;;;;;;5017863;28;20475;-62
2023/08/17 10:31:02;;;;;;;4.13;3.60;;;25.20;99.90;;;;;;5018240;28;20456;-64
2023/08/17 10:33:30;;;;;;;4.63;3.87;;;25.30;99.90;;;;;;5023362;28;20491;-64
2023/08/17 10:35:58;;;;;;;6.10;4.33;;;25.50;99.90;;;;;;5023249;28;20421;-61
2023/08/17 10:38:25;;;;;;;5.33;4.43;;;26.00;99.90;;;;;;5028119;28;21040;-62
2023/08/17 10:41:11;;;;;;;4.40;3.93;;;26.40;99.90;;;;;;5027905;28;20630;-63
2023/08/17 10:43:58;;;;;;;4.30;4.00;;;26.70;99.90;;;;;;5029542;28;20435;-64
2023/08/17 10:46:35;;;;;;;9.23;5.53;;;27.20;99.90;;;;;;5018814;28;20453;-63
2023/08/17 10:49:06;;;;;;;5.30;3.57;;;27.60;99.90;;;;;;5020662;28;20436;-65
2023/08/17 10:51:34;;;;;;;4.83;3.87;;;28.10;99.90;;;;;;5017837;28;20560;-61
2023/08/17 10:54:04;;;;;;;6.30;4.17;;;28.50;99.90;;;;;;5017568;28;20512;-61
2023/08/17 10:56:33;;;;;;;8.60;4.07;;;28.60;99.90;;;;;;5017789;28;20479;-62
2023/08/17 10:59:01;;;;;;;5.67;4.40;;;28.70;99.90;;;;;;5019143;28;20465;-62
2023/08/17 11:01:41;;;;;;;4.77;4.23;;;28.80;99.90;;;;;;5025105;28;20459;-59
2023/08/17 11:04:13;;;;;;;4.37;3.97;;;29.10;99.90;;;;;;5026871;28;20880;-62
2023/08/17 11:06:40;;;;;;;8.30;4.30;;;29.30;99.90;;;;;;5026195;28;20448;-62
2023/08/17 11:09:09;;;;;;;5.43;4.93;;;29.40;99.90;;;;;;5017663;28;20461;-62
2023/08/17 11:11:37;;;;;;;6.70;4.57;;;29.60;99.90;;;;;;5017554;28;20449;-64
2023/08/17 11:14:04;;;;;;;5.67;3.90;;;29.60;99.90;;;;;;5018436;28;20544;-63
2023/08/17 11:16:31;;;;;;;4.10;3.70;;;29.60;99.90;;;;;;5020196;28;20477;-63
2023/08/17 11:18:59;;;;;;;4.30;3.90;;;29.60;99.90;;;;;;5017237;28;20516;-62
2023/08/17 11:21:26;;;;;;;4.60;4.20;;;29.50;99.90;;;;;;5017421;28;20782;-62
2023/08/17 11:23:57;;;;;;;5.57;4.20;;;29.40;99.90;;;;;;5017319;28;20480;-62
2023/08/17 11:26:25;;;;;;;5.80;4.33;;;29.40;99.90;;;;;;5017048;28;20870;-62
2023/08/17 11:28:53;;;;;;;7.07;5.00;;;29.30;99.90;;;;;;5016921;28;20448;-61
2023/08/17 11:31:20;;;;;;;4.70;3.40;;;29.10;99.90;;;;;;5016874;28;20511;-63
2023/08/17 11:33:47;;;;;;;7.23;4.50;;;28.80;99.90;;;;;;5017076;28;20491;-62
2023/08/17 11:36:14;;;;;;;5.03;4.53;;;28.70;99.90;;;;;;5016655;28;20983;-64
2023/08/17 11:38:43;;;;;;;5.50;4.37;;;28.60;99.90;;;;;;5016991;28;20514;-62
2023/08/17 11:41:10;;;;;;;4.50;4.10;;;28.40;99.90;;;;;;5018315;28;20476;-63
2023/08/17 11:43:38;;;;;;;4.17;3.83;;;28.20;99.90;;;;;;5020967;28;20453;-62
2023/08/17 11:46:06;;;;;;;8.20;4.10;;;28.10;99.90;;;;;;5020028;28;20541;-63
2023/08/17 11:48:34;;;;;;;5.20;4.47;;;28.00;99.90;;;;;;5019888;28;20476;-60
2023/08/17 11:51:01;;;;;;;4.43;4.03;;;27.90;99.90;;;;;;5023006;28;20503;-62
2023/08/17 11:53:35;;;;;;;7.97;4.80;;;27.70;99.90;;;;;;5024746;28;20475;-62
2023/08/17 11:56:02;;;;;;;4.97;4.47;;;27.60;99.90;;;;;;5024808;28;20880;-62
2023/08/17 11:58:42;;;;;;;4.57;4.17;;;27.70;99.90;;;;;;5019136;28;20493;-61
2023/08/17 12:01:12;;;;;;;7.20;4.07;;;27.70;99.90;;;;;;5038220;28;20415;-52
2023/08/17 12:03:40;;;;;;;3.63;3.33;;;27.80;99.90;;;;;;5035521;28;20457;-63
2023/08/17 12:06:07;;;;;;;7.30;4.23;;;27.90;99.90;;;;;;5017653;28;20532;-63
2023/08/17 12:08:34;;;;;;;5.70;4.53;;;28.10;99.90;;;;;;5018602;28;20524;-62
2023/08/17 12:11:01;;;;;;;4.90;4.47;;;28.20;99.90;;;;;;5019544;28;20523;-61
2023/08/17 12:13:35;;;;;;;9.80;6.17;;;28.40;99.90;;;;;;5020206;28;20477;-62
2023/08/17 12:16:03;;;;;;;5.10;4.60;;;28.60;99.90;;;;;;5020379;28;20434;-62
2023/08/17 12:18:33;;;;;;;4.77;4.20;;;28.60;99.90;;;;;;5020040;28;20511;-61
2023/08/17 12:21:00;;;;;;;6.43;5.60;;;28.60;99.90;;;;;;5019735;28;20480;-64
2023/08/17 12:23:27;;;;;;;7.47;6.03;;;28.70;99.90;;;;;;5019668;28;20459;-61
2023/08/17 12:25:55;;;;;;;5.30;4.23;;;28.60;99.90;;;;;;5023341;28;20509;-61
2023/08/17 12:28:23;;;;;;;9.00;4.73;;;28.50;99.90;;;;;;5017966;28;20501;-62
2023/08/17 12:30:59;;;;;;;6.10;4.37;;;28.60;99.90;;;;;;5015834;28;20484;-65
2023/08/17 12:33:26;;;;;;;4.80;4.20;;;28.80;99.90;;;;;;5017376;28;20460;-64
2023/08/17 12:35:54;;;;;;;5.67;4.80;;;28.90;99.90;;;;;;5019665;28;20488;-62
2023/08/17 12:38:21;;;;;;;5.80;5.20;;;29.00;99.90;;;;;;5017452;28;20568;-62
2023/08/17 12:40:48;;;;;;;6.17;5.03;;;29.10;99.90;;;;;;5015593;28;20524;-61
2023/08/17 12:43:17;;;;;;;8.07;4.83;;;29.00;99.90;;;;;;5015525;28;20465;-63
2023/08/17 12:45:43;;;;;;;7.70;5.27;;;28.90;99.90;;;;;;5017597;28;20456;-61
2023/08/17 12:48:10;;;;;;;6.70;6.07;;;28.90;99.90;;;;;;5021782;28;20852;-61
2023/08/17 12:50:37;;;;;;;7.90;5.77;;;28.70;99.90;;;;;;5023721;28;20480;-63